sensor_id;sensor_type;location;lat;lon;timestamp;P1;durP1;ratioP1;P2;durP2;ratioP2
61572;SDS011;47465;43.094;12.434;2022-11-10T00:02:23;25.92;;;16.42;;
61572;SDS011;47465;43.094;12.434;2022-11-10T00:04:52;25.70;;;16.33;;
61572;SDS011;47465;43.094;12.434;2022-11-10T00:07:25;25.42;;;16.98;;
61572;SDS011;47465;43.094;12.434;2022-11-10T00:09:51;24.58;;;17.00;;
61572;SDS011;47465;43.094;12.434;2022-11-10T00:12:19;27.25;;;17.02;;
61572;SDS011;47465;43.094;12.434;2022-11-10T00:14:47;27.42;;;18.13;;
61572;SDS011;47465;43.094;12.434;2022-11-10T00:22:23;25.98;;;18.02;;
61572;SDS011;47465;43.094;12.434;2022-11-10T00:27:17;24.60;;;17.05;;
61572;SDS011;47465;43.094;12.434;2022-11-10T00:29:50;27.17;;;17.05;;
61572;SDS011;47465;43.094;12.434;2022-11-10T00:32:17;26.27;;;17.80;;
61572;SDS011;47465;43.094;12.434;2022-11-10T00:34:47;25.50;;;17.55;;
61572;SDS011;47465;43.094;12.434;2022-11-10T00:37:13;25.20;;;17.13;;
61572;SDS011;47465;43.094;12.434;2022-11-10T00:39:41;25.95;;;17.35;;
61572;SDS011;47465;43.094;12.434;2022-11-10T00:42:08;27.08;;;16.73;;
61572;SDS011;47465;43.094;12.434;2022-11-10T00:44:35;25.48;;;16.13;;
61572;SDS011;47465;43.094;12.434;2022-11-10T00:47:12;26.75;;;15.40;;
61572;SDS011;47465;43.094;12.434;2022-11-10T00:49:39;27.80;;;16.27;;
61572;SDS011;47465;43.094;12.434;2022-11-10T00:52:09;23.35;;;15.43;;
61572;SDS011;47465;43.094;12.434;2022-11-10T00:54:35;21.88;;;14.85;;
61572;SDS011;47465;43.094;12.434;2022-11-10T00:59:50;22.83;;;14.80;;
61572;SDS011;47465;43.094;12.434;2022-11-10T01:02:24;21.77;;;15.15;;
61572;SDS011;47465;43.094;12.434;2022-11-10T01:04:59;20.98;;;14.32;;
61572;SDS011;47465;43.094;12.434;2022-11-10T01:07:30;24.25;;;16.30;;
61572;SDS011;47465;43.094;12.434;2022-11-10T01:10:00;27.55;;;19.75;;
61572;SDS011;47465;43.094;12.434;2022-11-10T01:12:37;25.48;;;16.55;;
61572;SDS011;47465;43.094;12.434;2022-11-10T01:15:07;22.30;;;16.10;;
61572;SDS011;47465;43.094;12.434;2022-11-10T01:17:38;21.90;;;14.50;;
61572;SDS011;47465;43.094;12.434;2022-11-10T01:20:07;19.00;;;13.13;;
61572;SDS011;47465;43.094;12.434;2022-11-10T01:22:37;20.42;;;13.57;;
61572;SDS011;47465;43.094;12.434;2022-11-10T01:25:08;20.70;;;13.35;;
61572;SDS011;47465;43.094;12.434;2022-11-10T01:27:41;21.80;;;13.55;;
61572;SDS011;47465;43.094;12.434;2022-11-10T01:30:09;21.20;;;13.40;;
61572;SDS011;47465;43.094;12.434;2022-11-10T01:32:39;16.88;;;12.18;;
61572;SDS011;47465;43.094;12.434;2022-11-10T01:35:11;18.08;;;12.73;;
61572;SDS011;47465;43.094;12.434;2022-11-10T01:37:41;18.80;;;13.07;;
61572;SDS011;47465;43.094;12.434;2022-11-10T01:40:16;18.40;;;13.32;;
61572;SDS011;47465;43.094;12.434;2022-11-10T01:42:52;18.13;;;11.82;;
61572;SDS011;47465;43.094;12.434;2022-11-10T01:48:23;22.10;;;13.75;;
61572;SDS011;47465;43.094;12.434;2022-11-10T01:51:17;26.17;;;17.63;;
61572;SDS011;47465;43.094;12.434;2022-11-10T01:53:49;26.45;;;18.85;;
61572;SDS011;47465;43.094;12.434;2022-11-10T01:56:35;28.60;;;19.08;;
61572;SDS011;47465;43.094;12.434;2022-11-10T01:59:07;27.25;;;18.58;;
61572;SDS011;47465;43.094;12.434;2022-11-10T02:01:44;30.95;;;20.77;;
61572;SDS011;47465;43.094;12.434;2022-11-10T02:04:16;29.95;;;20.20;;
61572;SDS011;47465;43.094;12.434;2022-11-10T02:06:48;33.00;;;21.20;;
61572;SDS011;47465;43.094;12.434;2022-11-10T02:09:18;29.48;;;20.65;;
61572;SDS011;47465;43.094;12.434;2022-11-10T02:11:53;28.73;;;20.35;;
61572;SDS011;47465;43.094;12.434;2022-11-10T02:14:25;29.73;;;19.02;;
61572;SDS011;47465;43.094;12.434;2022-11-10T02:16:52;23.70;;;15.90;;
61572;SDS011;47465;43.094;12.434;2022-11-10T02:19:29;20.92;;;14.38;;
61572;SDS011;47465;43.094;12.434;2022-11-10T02:22:08;23.17;;;14.02;;
61572;SDS011;47465;43.094;12.434;2022-11-10T02:24:51;17.45;;;12.63;;
61572;SDS011;47465;43.094;12.434;2022-11-10T02:27:25;17.60;;;11.40;;
61572;SDS011;47465;43.094;12.434;2022-11-10T02:29:52;16.85;;;11.45;;
61572;SDS011;47465;43.094;12.434;2022-11-10T02:32:24;16.75;;;11.88;;
61572;SDS011;47465;43.094;12.434;2022-11-10T02:34:54;17.70;;;12.30;;
61572;SDS011;47465;43.094;12.434;2022-11-10T02:37:22;23.15;;;15.57;;
61572;SDS011;47465;43.094;12.434;2022-11-10T02:39:48;28.27;;;17.13;;
61572;SDS011;47465;43.094;12.434;2022-11-10T02:42:24;22.02;;;15.85;;
61572;SDS011;47465;43.094;12.434;2022-11-10T02:44:59;22.50;;;15.33;;
61572;SDS011;47465;43.094;12.434;2022-11-10T02:47:28;26.33;;;16.17;;
61572;SDS011;47465;43.094;12.434;2022-11-10T02:50:10;21.73;;;15.65;;
61572;SDS011;47465;43.094;12.434;2022-11-10T02:52:39;24.23;;;15.68;;
61572;SDS011;47465;43.094;12.434;2022-11-10T02:55:09;23.20;;;15.40;;
61572;SDS011;47465;43.094;12.434;2022-11-10T02:57:38;27.80;;;16.92;;
61572;SDS011;47465;43.094;12.434;2022-11-10T03:00:10;26.58;;;17.58;;
61572;SDS011;47465;43.094;12.434;2022-11-10T03:02:41;27.38;;;18.33;;
61572;SDS011;47465;43.094;12.434;2022-11-10T03:05:12;31.60;;;19.60;;
61572;SDS011;47465;43.094;12.434;2022-11-10T03:07:40;30.15;;;17.45;;
61572;SDS011;47465;43.094;12.434;2022-11-10T03:10:07;25.65;;;17.27;;
61572;SDS011;47465;43.094;12.434;2022-11-10T03:12:36;26.48;;;17.23;;
61572;SDS011;47465;43.094;12.434;2022-11-10T03:15:08;26.95;;;17.08;;
61572;SDS011;47465;43.094;12.434;2022-11-10T03:17:38;24.52;;;16.80;;
61572;SDS011;47465;43.094;12.434;2022-11-10T03:20:12;24.83;;;16.45;;
61572;SDS011;47465;43.094;12.434;2022-11-10T03:22:49;23.23;;;15.55;;
61572;SDS011;47465;43.094;12.434;2022-11-10T03:25:17;24.10;;;16.25;;
61572;SDS011;47465;43.094;12.434;2022-11-10T03:27:44;24.52;;;15.65;;
61572;SDS011;47465;43.094;12.434;2022-11-10T03:32:40;22.23;;;14.88;;
61572;SDS011;47465;43.094;12.434;2022-11-10T03:35:13;22.00;;;15.13;;
61572;SDS011;47465;43.094;12.434;2022-11-10T03:37:48;24.52;;;15.32;;
61572;SDS011;47465;43.094;12.434;2022-11-10T03:40:15;23.08;;;14.95;;
61572;SDS011;47465;43.094;12.434;2022-11-10T03:42:44;23.85;;;14.93;;
61572;SDS011;47465;43.094;12.434;2022-11-10T03:45:13;23.30;;;16.17;;
61572;SDS011;47465;43.094;12.434;2022-11-10T03:47:45;27.05;;;17.52;;
61572;SDS011;47465;43.094;12.434;2022-11-10T03:50:11;25.17;;;16.50;;
61572;SDS011;47465;43.094;12.434;2022-11-10T03:52:41;27.20;;;16.92;;
61572;SDS011;47465;43.094;12.434;2022-11-10T03:55:14;25.65;;;17.40;;
61572;SDS011;47465;43.094;12.434;2022-11-10T03:57:43;24.77;;;17.50;;
61572;SDS011;47465;43.094;12.434;2022-11-10T04:00:20;25.55;;;16.25;;
61572;SDS011;47465;43.094;12.434;2022-11-10T04:02:50;25.95;;;15.23;;
61572;SDS011;47465;43.094;12.434;2022-11-10T04:05:20;26.80;;;15.35;;
61572;SDS011;47465;43.094;12.434;2022-11-10T04:08:25;21.52;;;14.65;;
61572;SDS011;47465;43.094;12.434;2022-11-10T04:11:26;19.92;;;14.23;;
61572;SDS011;47465;43.094;12.434;2022-11-10T04:14:39;24.00;;;14.02;;
61572;SDS011;47465;43.094;12.434;2022-11-10T04:17:41;22.27;;;13.70;;
61572;SDS011;47465;43.094;12.434;2022-11-10T04:20:26;21.95;;;13.88;;
61572;SDS011;47465;43.094;12.434;2022-11-10T04:23:02;20.83;;;12.98;;
61572;SDS011;47465;43.094;12.434;2022-11-10T04:36:28;20.95;;;13.00;;
61572;SDS011;47465;43.094;12.434;2022-11-10T04:38:58;18.98;;;12.80;;
61572;SDS011;47465;43.094;12.434;2022-11-10T04:41:29;18.52;;;13.15;;
61572;SDS011;47465;43.094;12.434;2022-11-10T04:44:07;19.50;;;12.02;;
61572;SDS011;47465;43.094;12.434;2022-11-10T04:46:37;17.45;;;11.60;;
61572;SDS011;47465;43.094;12.434;2022-11-10T04:49:19;17.30;;;12.13;;
61572;SDS011;47465;43.094;12.434;2022-11-10T04:52:07;16.83;;;11.77;;
61572;SDS011;47465;43.094;12.434;2022-11-10T04:54:37;23.00;;;14.00;;
61572;SDS011;47465;43.094;12.434;2022-11-10T04:57:12;22.70;;;13.60;;
61572;SDS011;47465;43.094;12.434;2022-11-10T04:59:41;18.92;;;12.82;;
61572;SDS011;47465;43.094;12.434;2022-11-10T05:02:10;18.55;;;12.20;;
61572;SDS011;47465;43.094;12.434;2022-11-10T05:07:30;18.40;;;12.07;;
61572;SDS011;47465;43.094;12.434;2022-11-10T05:09:59;20.63;;;13.75;;
61572;SDS011;47465;43.094;12.434;2022-11-10T05:12:51;19.15;;;13.85;;
61572;SDS011;47465;43.094;12.434;2022-11-10T05:15:22;18.00;;;13.35;;
61572;SDS011;47465;43.094;12.434;2022-11-10T05:18:15;18.70;;;13.88;;
61572;SDS011;47465;43.094;12.434;2022-11-10T05:20:56;20.77;;;13.15;;
61572;SDS011;47465;43.094;12.434;2022-11-10T05:23:28;19.88;;;14.05;;
61572;SDS011;47465;43.094;12.434;2022-11-10T05:26:09;25.45;;;15.45;;
61572;SDS011;47465;43.094;12.434;2022-11-10T05:28:36;21.15;;;14.25;;
61572;SDS011;47465;43.094;12.434;2022-11-10T05:31:03;22.13;;;15.40;;
61572;SDS011;47465;43.094;12.434;2022-11-10T05:33:32;19.95;;;14.23;;
61572;SDS011;47465;43.094;12.434;2022-11-10T05:36:03;24.95;;;14.48;;
61572;SDS011;47465;43.094;12.434;2022-11-10T05:38:43;21.83;;;15.30;;
61572;SDS011;47465;43.094;12.434;2022-11-10T05:41:10;21.20;;;14.90;;
61572;SDS011;47465;43.094;12.434;2022-11-10T05:43:58;20.98;;;14.57;;
61572;SDS011;47465;43.094;12.434;2022-11-10T05:48:56;19.50;;;13.20;;
61572;SDS011;47465;43.094;12.434;2022-11-10T05:51:25;21.42;;;14.68;;
61572;SDS011;47465;43.094;12.434;2022-11-10T05:53:59;22.00;;;15.05;;
61572;SDS011;47465;43.094;12.434;2022-11-10T05:56:34;24.63;;;15.10;;
61572;SDS011;47465;43.094;12.434;2022-11-10T05:59:09;22.88;;;15.10;;
61572;SDS011;47465;43.094;12.434;2022-11-10T06:01:51;23.67;;;16.23;;
61572;SDS011;47465;43.094;12.434;2022-11-10T06:04:29;24.15;;;17.17;;
61572;SDS011;47465;43.094;12.434;2022-11-10T06:07:22;25.25;;;17.08;;
61572;SDS011;47465;43.094;12.434;2022-11-10T06:23:05;24.67;;;16.90;;
61572;SDS011;47465;43.094;12.434;2022-11-10T06:25:57;25.17;;;16.37;;
61572;SDS011;47465;43.094;12.434;2022-11-10T06:28:42;25.33;;;17.20;;
61572;SDS011;47465;43.094;12.434;2022-11-10T06:31:14;25.23;;;17.60;;
61572;SDS011;47465;43.094;12.434;2022-11-10T06:33:42;24.30;;;16.52;;
61572;SDS011;47465;43.094;12.434;2022-11-10T06:36:23;25.50;;;17.60;;
61572;SDS011;47465;43.094;12.434;2022-11-10T06:49:09;25.17;;;16.52;;
61572;SDS011;47465;43.094;12.434;2022-11-10T06:51:55;24.50;;;17.08;;
61572;SDS011;47465;43.094;12.434;2022-11-10T06:55:28;22.67;;;15.90;;
61572;SDS011;47465;43.094;12.434;2022-11-10T07:09:39;49.85;;;27.85;;
61572;SDS011;47465;43.094;12.434;2022-11-10T07:19:56;22.38;;;16.77;;
61572;SDS011;47465;43.094;12.434;2022-11-10T07:22:41;23.00;;;16.23;;
61572;SDS011;47465;43.094;12.434;2022-11-10T07:25:19;24.23;;;16.30;;
61572;SDS011;47465;43.094;12.434;2022-11-10T07:28:30;24.45;;;16.83;;
61572;SDS011;47465;43.094;12.434;2022-11-10T07:31:02;24.70;;;17.00;;
61572;SDS011;47465;43.094;12.434;2022-11-10T07:33:37;22.50;;;15.68;;
61572;SDS011;47465;43.094;12.434;2022-11-10T07:39:33;21.55;;;15.07;;
61572;SDS011;47465;43.094;12.434;2022-11-10T07:42:12;24.25;;;17.35;;
61572;SDS011;47465;43.094;12.434;2022-11-10T07:51:09;21.17;;;15.43;;
61572;SDS011;47465;43.094;12.434;2022-11-10T07:53:40;22.92;;;17.17;;
61572;SDS011;47465;43.094;12.434;2022-11-10T07:59:01;22.48;;;16.17;;
61572;SDS011;47465;43.094;12.434;2022-11-10T08:15:40;19.35;;;12.65;;
61572;SDS011;47465;43.094;12.434;2022-11-10T08:18:14;16.08;;;11.93;;
61572;SDS011;47465;43.094;12.434;2022-11-10T08:20:53;16.35;;;12.10;;
61572;SDS011;47465;43.094;12.434;2022-11-10T08:26:45;17.05;;;11.82;;
61572;SDS011;47465;43.094;12.434;2022-11-10T08:31:51;19.63;;;13.07;;
61572;SDS011;47465;43.094;12.434;2022-11-10T08:34:17;15.02;;;11.63;;
61572;SDS011;47465;43.094;12.434;2022-11-10T08:37:09;17.90;;;12.60;;
61572;SDS011;47465;43.094;12.434;2022-11-10T08:39:49;18.52;;;13.30;;
61572;SDS011;47465;43.094;12.434;2022-11-10T08:42:18;15.20;;;12.48;;
61572;SDS011;47465;43.094;12.434;2022-11-10T08:44:44;17.63;;;12.15;;
61572;SDS011;47465;43.094;12.434;2022-11-10T08:47:14;16.13;;;12.13;;
61572;SDS011;47465;43.094;12.434;2022-11-10T08:49:40;17.17;;;11.75;;
61572;SDS011;47465;43.094;12.434;2022-11-10T08:52:07;15.27;;;10.95;;
61572;SDS011;47465;43.094;12.434;2022-11-10T08:54:34;14.52;;;9.90;;
61572;SDS011;47465;43.094;12.434;2022-11-10T08:57:00;11.95;;;9.00;;
61572;SDS011;47465;43.094;12.434;2022-11-10T09:02:02;14.75;;;8.88;;
61572;SDS011;47465;43.094;12.434;2022-11-10T09:04:37;10.13;;;7.72;;
61572;SDS011;47465;43.094;12.434;2022-11-10T09:10:57;11.95;;;8.70;;
61572;SDS011;47465;43.094;12.434;2022-11-10T09:13:29;12.23;;;8.15;;
61572;SDS011;47465;43.094;12.434;2022-11-10T09:16:19;10.27;;;7.80;;
61572;SDS011;47465;43.094;12.434;2022-11-10T09:21:21;13.07;;;10.38;;
61572;SDS011;47465;43.094;12.434;2022-11-10T09:26:23;13.95;;;9.95;;
61572;SDS011;47465;43.094;12.434;2022-11-10T09:31:38;12.10;;;8.25;;
61572;SDS011;47465;43.094;12.434;2022-11-10T09:34:06;11.52;;;7.22;;
61572;SDS011;47465;43.094;12.434;2022-11-10T09:36:38;9.98;;;7.72;;
61572;SDS011;47465;43.094;12.434;2022-11-10T09:39:04;10.63;;;7.43;;
61572;SDS011;47465;43.094;12.434;2022-11-10T09:41:31;9.90;;;6.80;;
61572;SDS011;47465;43.094;12.434;2022-11-10T09:43:58;10.48;;;7.10;;
61572;SDS011;47465;43.094;12.434;2022-11-10T09:46:31;8.57;;;5.95;;
61572;SDS011;47465;43.094;12.434;2022-11-10T09:49:05;10.50;;;5.82;;
61572;SDS011;47465;43.094;12.434;2022-11-10T09:51:39;7.28;;;4.90;;
61572;SDS011;47465;43.094;12.434;2022-11-10T09:57:26;7.40;;;4.57;;
61572;SDS011;47465;43.094;12.434;2022-11-10T09:59:52;7.55;;;4.60;;
61572;SDS011;47465;43.094;12.434;2022-11-10T10:02:21;9.13;;;4.30;;
61572;SDS011;47465;43.094;12.434;2022-11-10T10:05:05;6.10;;;4.20;;
61572;SDS011;47465;43.094;12.434;2022-11-10T10:07:53;6.22;;;4.20;;
61572;SDS011;47465;43.094;12.434;2022-11-10T10:13:53;5.88;;;4.50;;
61572;SDS011;47465;43.094;12.434;2022-11-10T10:16:32;6.32;;;3.80;;
61572;SDS011;47465;43.094;12.434;2022-11-10T10:19:12;7.00;;;4.00;;
61572;SDS011;47465;43.094;12.434;2022-11-10T10:21:54;6.18;;;4.20;;
61572;SDS011;47465;43.094;12.434;2022-11-10T10:24:39;5.27;;;4.10;;
61572;SDS011;47465;43.094;12.434;2022-11-10T10:27:07;5.40;;;3.97;;
61572;SDS011;47465;43.094;12.434;2022-11-10T10:29:37;5.90;;;3.58;;
61572;SDS011;47465;43.094;12.434;2022-11-10T10:32:07;7.15;;;3.80;;
61572;SDS011;47465;43.094;12.434;2022-11-10T10:34:52;7.00;;;3.80;;
61572;SDS011;47465;43.094;12.434;2022-11-10T10:37:24;8.80;;;4.10;;
61572;SDS011;47465;43.094;12.434;2022-11-10T10:40:00;7.30;;;3.80;;
61572;SDS011;47465;43.094;12.434;2022-11-10T10:42:34;5.63;;;4.20;;
61572;SDS011;47465;43.094;12.434;2022-11-10T10:49:48;7.18;;;3.92;;
61572;SDS011;47465;43.094;12.434;2022-11-10T10:52:14;7.28;;;3.90;;
61572;SDS011;47465;43.094;12.434;2022-11-10T10:54:42;6.60;;;4.22;;
61572;SDS011;47465;43.094;12.434;2022-11-10T10:57:18;6.70;;;3.92;;
61572;SDS011;47465;43.094;12.434;2022-11-10T10:59:46;6.97;;;4.30;;
61572;SDS011;47465;43.094;12.434;2022-11-10T11:02:20;6.05;;;3.70;;
61572;SDS011;47465;43.094;12.434;2022-11-10T11:07:52;7.38;;;5.10;;
61572;SDS011;47465;43.094;12.434;2022-11-10T11:10:20;9.00;;;5.05;;
61572;SDS011;47465;43.094;12.434;2022-11-10T11:12:49;4.97;;;3.70;;
61572;SDS011;47465;43.094;12.434;2022-11-10T11:17:59;5.65;;;3.72;;
61572;SDS011;47465;43.094;12.434;2022-11-10T11:20:30;5.68;;;3.83;;
61572;SDS011;47465;43.094;12.434;2022-11-10T11:23:03;7.38;;;4.20;;
61572;SDS011;47465;43.094;12.434;2022-11-10T11:25:41;8.75;;;4.57;;
61572;SDS011;47465;43.094;12.434;2022-11-10T11:28:13;7.97;;;4.00;;
61572;SDS011;47465;43.094;12.434;2022-11-10T11:30:52;6.15;;;4.47;;
61572;SDS011;47465;43.094;12.434;2022-11-10T11:33:26;6.43;;;4.35;;
61572;SDS011;47465;43.094;12.434;2022-11-10T11:35:59;9.65;;;3.47;;
61572;SDS011;47465;43.094;12.434;2022-11-10T11:38:37;5.47;;;3.58;;
61572;SDS011;47465;43.094;12.434;2022-11-10T11:41:12;5.72;;;3.63;;
61572;SDS011;47465;43.094;12.434;2022-11-10T11:46:50;5.25;;;3.22;;
61572;SDS011;47465;43.094;12.434;2022-11-10T11:49:29;5.93;;;3.53;;
61572;SDS011;47465;43.094;12.434;2022-11-10T11:52:13;5.07;;;3.20;;
61572;SDS011;47465;43.094;12.434;2022-11-10T11:54:53;4.47;;;3.00;;
61572;SDS011;47465;43.094;12.434;2022-11-10T11:57:38;5.43;;;3.00;;
61572;SDS011;47465;43.094;12.434;2022-11-10T12:00:14;5.38;;;2.95;;
61572;SDS011;47465;43.094;12.434;2022-11-10T12:05:27;4.95;;;2.80;;
61572;SDS011;47465;43.094;12.434;2022-11-10T12:08:01;4.90;;;3.08;;
61572;SDS011;47465;43.094;12.434;2022-11-10T12:10:41;6.85;;;3.03;;
61572;SDS011;47465;43.094;12.434;2022-11-10T12:13:23;6.90;;;3.20;;
61572;SDS011;47465;43.094;12.434;2022-11-10T12:15:58;5.50;;;3.65;;
61572;SDS011;47465;43.094;12.434;2022-11-10T12:18:31;4.50;;;3.10;;
61572;SDS011;47465;43.094;12.434;2022-11-10T12:21:04;5.00;;;3.47;;
61572;SDS011;47465;43.094;12.434;2022-11-10T12:26:16;5.22;;;3.13;;
61572;SDS011;47465;43.094;12.434;2022-11-10T12:28:54;5.93;;;2.97;;
61572;SDS011;47465;43.094;12.434;2022-11-10T12:31:30;4.90;;;3.10;;
61572;SDS011;47465;43.094;12.434;2022-11-10T12:34:01;4.95;;;3.22;;
61572;SDS011;47465;43.094;12.434;2022-11-10T12:36:33;7.05;;;3.53;;
61572;SDS011;47465;43.094;12.434;2022-11-10T12:39:02;7.43;;;4.05;;
61572;SDS011;47465;43.094;12.434;2022-11-10T12:41:36;5.63;;;4.55;;
61572;SDS011;47465;43.094;12.434;2022-11-10T12:44:12;7.57;;;3.95;;
61572;SDS011;47465;43.094;12.434;2022-11-10T12:46:48;5.75;;;3.20;;
61572;SDS011;47465;43.094;12.434;2022-11-10T12:49:23;4.10;;;2.92;;
61572;SDS011;47465;43.094;12.434;2022-11-10T12:51:58;4.57;;;3.22;;
61572;SDS011;47465;43.094;12.434;2022-11-10T12:54:32;5.63;;;3.30;;
61572;SDS011;47465;43.094;12.434;2022-11-10T12:57:00;6.50;;;3.53;;
61572;SDS011;47465;43.094;12.434;2022-11-10T13:00:21;4.75;;;3.08;;
61572;SDS011;47465;43.094;12.434;2022-11-10T13:02:51;6.85;;;3.80;;
61572;SDS011;47465;43.094;12.434;2022-11-10T13:05:31;6.22;;;4.00;;
61572;SDS011;47465;43.094;12.434;2022-11-10T13:08:05;5.35;;;3.50;;
61572;SDS011;47465;43.094;12.434;2022-11-10T13:10:37;6.93;;;3.83;;
61572;SDS011;47465;43.094;12.434;2022-11-10T13:13:17;5.55;;;3.83;;
61572;SDS011;47465;43.094;12.434;2022-11-10T13:15:55;6.60;;;3.60;;
61572;SDS011;47465;43.094;12.434;2022-11-10T13:24:40;6.88;;;4.03;;
61572;SDS011;47465;43.094;12.434;2022-11-10T13:27:12;7.05;;;4.05;;
61572;SDS011;47465;43.094;12.434;2022-11-10T13:30:00;9.52;;;4.53;;
61572;SDS011;47465;43.094;12.434;2022-11-10T13:32:29;6.57;;;4.70;;
61572;SDS011;47465;43.094;12.434;2022-11-10T13:37:56;7.72;;;4.88;;
61572;SDS011;47465;43.094;12.434;2022-11-10T13:40:29;12.32;;;4.57;;
61572;SDS011;47465;43.094;12.434;2022-11-10T13:45:58;6.40;;;4.25;;
61572;SDS011;47465;43.094;12.434;2022-11-10T13:48:32;6.85;;;4.45;;
61572;SDS011;47465;43.094;12.434;2022-11-10T13:51:20;8.90;;;4.43;;
61572;SDS011;47465;43.094;12.434;2022-11-10T13:54:04;5.20;;;3.53;;
61572;SDS011;47465;43.094;12.434;2022-11-10T13:57:02;5.35;;;3.50;;
61572;SDS011;47465;43.094;12.434;2022-11-10T13:59:42;5.78;;;3.47;;
61572;SDS011;47465;43.094;12.434;2022-11-10T14:05:57;9.77;;;5.70;;
61572;SDS011;47465;43.094;12.434;2022-11-10T14:08:22;10.07;;;4.93;;
61572;SDS011;47465;43.094;12.434;2022-11-10T14:10:54;6.32;;;4.50;;
61572;SDS011;47465;43.094;12.434;2022-11-10T14:17:26;8.00;;;5.53;;
61572;SDS011;47465;43.094;12.434;2022-11-10T14:19:55;11.63;;;5.95;;
61572;SDS011;47465;43.094;12.434;2022-11-10T14:22:39;9.50;;;5.13;;
61572;SDS011;47465;43.094;12.434;2022-11-10T14:25:22;6.40;;;4.15;;
61572;SDS011;47465;43.094;12.434;2022-11-10T14:31:49;6.55;;;4.18;;
61572;SDS011;47465;43.094;12.434;2022-11-10T14:34:15;8.35;;;4.82;;
61572;SDS011;47465;43.094;12.434;2022-11-10T14:36:49;6.95;;;4.38;;
61572;SDS011;47465;43.094;12.434;2022-11-10T14:39:18;6.18;;;3.80;;
61572;SDS011;47465;43.094;12.434;2022-11-10T14:41:51;5.95;;;3.90;;
61572;SDS011;47465;43.094;12.434;2022-11-10T14:44:21;5.65;;;3.83;;
61572;SDS011;47465;43.094;12.434;2022-11-10T14:46:49;8.02;;;4.43;;
61572;SDS011;47465;43.094;12.434;2022-11-10T14:49:19;6.70;;;3.60;;
61572;SDS011;47465;43.094;12.434;2022-11-10T14:51:47;9.30;;;4.10;;
61572;SDS011;47465;43.094;12.434;2022-11-10T14:54:15;7.35;;;4.40;;
61572;SDS011;47465;43.094;12.434;2022-11-10T14:56:47;7.72;;;4.50;;
61572;SDS011;47465;43.094;12.434;2022-11-10T14:59:13;11.93;;;5.75;;
61572;SDS011;47465;43.094;12.434;2022-11-10T15:01:47;8.35;;;5.00;;
61572;SDS011;47465;43.094;12.434;2022-11-10T15:04:16;8.32;;;5.22;;
61572;SDS011;47465;43.094;12.434;2022-11-10T15:06:49;8.27;;;5.50;;
61572;SDS011;47465;43.094;12.434;2022-11-10T15:09:22;9.48;;;5.90;;
61572;SDS011;47465;43.094;12.434;2022-11-10T15:11:51;9.45;;;5.80;;
61572;SDS011;47465;43.094;12.434;2022-11-10T15:14:29;10.18;;;5.93;;
61572;SDS011;47465;43.094;12.434;2022-11-10T15:16:59;10.27;;;6.00;;
61572;SDS011;47465;43.094;12.434;2022-11-10T15:19:26;12.50;;;5.80;;
61572;SDS011;47465;43.094;12.434;2022-11-10T15:21:53;10.65;;;6.35;;
61572;SDS011;47465;43.094;12.434;2022-11-10T15:24:21;11.20;;;6.63;;
61572;SDS011;47465;43.094;12.434;2022-11-10T15:26:49;10.98;;;7.43;;
61572;SDS011;47465;43.094;12.434;2022-11-10T15:29:19;10.05;;;6.60;;
61572;SDS011;47465;43.094;12.434;2022-11-10T15:31:47;11.40;;;6.30;;
61572;SDS011;47465;43.094;12.434;2022-11-10T15:34:28;9.80;;;6.28;;
61572;SDS011;47465;43.094;12.434;2022-11-10T15:37:07;19.95;;;11.75;;
61572;SDS011;47465;43.094;12.434;2022-11-10T15:39:36;21.42;;;12.90;;
61572;SDS011;47465;43.094;12.434;2022-11-10T15:42:10;22.67;;;11.70;;
61572;SDS011;47465;43.094;12.434;2022-11-10T15:44:38;25.42;;;14.90;;
61572;SDS011;47465;43.094;12.434;2022-11-10T15:47:04;22.20;;;12.60;;
61572;SDS011;47465;43.094;12.434;2022-11-10T15:49:34;14.65;;;9.20;;
61572;SDS011;47465;43.094;12.434;2022-11-10T15:52:02;8.33;;;5.87;;
61572;SDS011;47465;43.094;12.434;2022-11-10T15:54:30;7.40;;;4.95;;
61572;SDS011;47465;43.094;12.434;2022-11-10T15:57:01;8.73;;;5.40;;
61572;SDS011;47465;43.094;12.434;2022-11-10T15:59:27;15.00;;;9.15;;
61572;SDS011;47465;43.094;12.434;2022-11-10T16:01:53;10.63;;;7.18;;
61572;SDS011;47465;43.094;12.434;2022-11-10T16:04:20;27.33;;;14.18;;
61572;SDS011;47465;43.094;12.434;2022-11-10T16:06:45;23.88;;;15.60;;
61572;SDS011;47465;43.094;12.434;2022-11-10T16:09:11;12.88;;;8.43;;
61572;SDS011;47465;43.094;12.434;2022-11-10T16:11:38;20.27;;;12.95;;
61572;SDS011;47465;43.094;12.434;2022-11-10T16:14:10;40.03;;;28.08;;
61572;SDS011;47465;43.094;12.434;2022-11-10T16:16:38;24.05;;;15.52;;
61572;SDS011;47465;43.094;12.434;2022-11-10T16:19:05;14.88;;;9.35;;
61572;SDS011;47465;43.094;12.434;2022-11-10T16:21:31;10.23;;;6.07;;
61572;SDS011;47465;43.094;12.434;2022-11-10T16:23:58;27.77;;;20.30;;
61572;SDS011;47465;43.094;12.434;2022-11-10T16:26:23;13.00;;;8.10;;
61572;SDS011;47465;43.094;12.434;2022-11-10T16:28:50;13.90;;;6.18;;
61572;SDS011;47465;43.094;12.434;2022-11-10T16:31:18;8.80;;;5.85;;
61572;SDS011;47465;43.094;12.434;2022-11-10T16:33:46;9.10;;;6.40;;
61572;SDS011;47465;43.094;12.434;2022-11-10T16:36:15;17.52;;;10.73;;
61572;SDS011;47465;43.094;12.434;2022-11-10T16:38:47;12.63;;;7.03;;
61572;SDS011;47465;43.094;12.434;2022-11-10T16:41:14;16.58;;;8.90;;
61572;SDS011;47465;43.094;12.434;2022-11-10T16:43:40;14.23;;;9.95;;
61572;SDS011;47465;43.094;12.434;2022-11-10T16:46:12;15.07;;;9.27;;
61572;SDS011;47465;43.094;12.434;2022-11-10T16:48:44;16.25;;;11.07;;
61572;SDS011;47465;43.094;12.434;2022-11-10T16:53:38;11.73;;;7.88;;
61572;SDS011;47465;43.094;12.434;2022-11-10T16:56:05;11.35;;;6.80;;
61572;SDS011;47465;43.094;12.434;2022-11-10T16:58:36;9.85;;;6.72;;
61572;SDS011;47465;43.094;12.434;2022-11-10T17:01:02;12.98;;;7.95;;
61572;SDS011;47465;43.094;12.434;2022-11-10T17:03:30;18.55;;;11.38;;
61572;SDS011;47465;43.094;12.434;2022-11-10T17:06:00;14.40;;;8.30;;
61572;SDS011;47465;43.094;12.434;2022-11-10T17:08:27;19.60;;;11.52;;
61572;SDS011;47465;43.094;12.434;2022-11-10T17:10:55;10.48;;;6.65;;
61572;SDS011;47465;43.094;12.434;2022-11-10T17:13:21;12.32;;;7.75;;
61572;SDS011;47465;43.094;12.434;2022-11-10T17:15:47;13.45;;;8.40;;
61572;SDS011;47465;43.094;12.434;2022-11-10T17:18:15;11.23;;;7.85;;
61572;SDS011;47465;43.094;12.434;2022-11-10T17:20:45;13.82;;;7.78;;
61572;SDS011;47465;43.094;12.434;2022-11-10T17:23:14;11.80;;;7.38;;
61572;SDS011;47465;43.094;12.434;2022-11-10T17:25:42;12.63;;;7.45;;
61572;SDS011;47465;43.094;12.434;2022-11-10T17:28:10;10.20;;;7.40;;
61572;SDS011;47465;43.094;12.434;2022-11-10T17:30:36;17.38;;;7.45;;
61572;SDS011;47465;43.094;12.434;2022-11-10T17:33:03;10.93;;;7.72;;
61572;SDS011;47465;43.094;12.434;2022-11-10T17:35:29;14.02;;;7.53;;
61572;SDS011;47465;43.094;12.434;2022-11-10T17:37:56;12.05;;;7.80;;
61572;SDS011;47465;43.094;12.434;2022-11-10T17:40:25;14.73;;;9.27;;
61572;SDS011;47465;43.094;12.434;2022-11-10T17:42:55;12.68;;;8.52;;
61572;SDS011;47465;43.094;12.434;2022-11-10T17:45:22;12.85;;;9.13;;
61572;SDS011;47465;43.094;12.434;2022-11-10T17:47:49;17.40;;;9.07;;